Terminal Aerodrome Forecast
Issued by NWS Denver/Boulder, CO

Home | Current Version | Previous Version | Text Only | Print | Product List | Glossary On
Versions: 1 2 3 4 5 6 7 8 9 10 11 12 13 14 15 16 17 18 19 20 21 22 23 24 25 26 27 28 29 30 31 32 33 34 35 36
000
FTUS45 KBOU 250220 AAA
TAFDEN
TAF AMD
KDEN 250220Z 2502/2606 11007KT P6SM BKN035 BKN060
     FM250400 15007KT P6SM SCT035 BKN060
     FM250600 20009KT P6SM SCT070 SCT120
     FM251800 VRB05KT P6SM SCT090 SCT150
     FM260100 17009KT P6SM SCT080 BKN120=

USA.gov is the U.S. government's official web portal to all federal, state and local government web resources and services.